sensor_id;sensor_type;location;lat;lon;timestamp;temperature;humidity
44565;DHT22;30275;51.822;-0.326;2022-10-17T00:01:56;15.30;99.90
44565;DHT22;30275;51.822;-0.326;2022-10-17T00:04:21;15.30;99.90
44565;DHT22;30275;51.822;-0.326;2022-10-17T00:06:47;15.40;99.90
44565;DHT22;30275;51.822;-0.326;2022-10-17T00:09:13;15.40;99.90
44565;DHT22;30275;51.822;-0.326;2022-10-17T00:11:38;15.40;99.90
44565;DHT22;30275;51.822;-0.326;2022-10-17T00:14:04;15.40;99.90
44565;DHT22;30275;51.822;-0.326;2022-10-17T00:16:33;15.50;99.90
44565;DHT22;30275;51.822;-0.326;2022-10-17T00:19:01;15.50;99.90
44565;DHT22;30275;51.822;-0.326;2022-10-17T00:21:27;15.50;99.90
44565;DHT22;30275;51.822;-0.326;2022-10-17T00:23:53;15.50;99.90
44565;DHT22;30275;51.822;-0.326;2022-10-17T00:26:19;15.50;99.90
44565;DHT22;30275;51.822;-0.326;2022-10-17T00:28:50;15.50;99.90
44565;DHT22;30275;51.822;-0.326;2022-10-17T00:31:17;15.50;99.90
44565;DHT22;30275;51.822;-0.326;2022-10-17T00:33:43;15.60;99.90
44565;DHT22;30275;51.822;-0.326;2022-10-17T00:36:15;15.60;99.90
44565;DHT22;30275;51.822;-0.326;2022-10-17T00:38:42;15.60;99.90
44565;DHT22;30275;51.822;-0.326;2022-10-17T00:41:09;15.60;99.90
44565;DHT22;30275;51.822;-0.326;2022-10-17T00:46:52;15.60;99.90
44565;DHT22;30275;51.822;-0.326;2022-10-17T00:49:18;15.50;99.90
44565;DHT22;30275;51.822;-0.326;2022-10-17T00:51:54;15.50;99.90
44565;DHT22;30275;51.822;-0.326;2022-10-17T00:54:24;15.50;99.90
44565;DHT22;30275;51.822;-0.326;2022-10-17T00:56:51;15.40;99.90
44565;DHT22;30275;51.822;-0.326;2022-10-17T00:59:19;15.40;99.90
44565;DHT22;30275;51.822;-0.326;2022-10-17T01:01:55;15.40;99.90
44565;DHT22;30275;51.822;-0.326;2022-10-17T01:04:24;15.40;99.90
44565;DHT22;30275;51.822;-0.326;2022-10-17T01:06:50;15.40;99.90
44565;DHT22;30275;51.822;-0.326;2022-10-17T01:09:15;15.40;99.90
44565;DHT22;30275;51.822;-0.326;2022-10-17T01:15:22;15.30;99.90
44565;DHT22;30275;51.822;-0.326;2022-10-17T01:22:46;15.50;99.90
44565;DHT22;30275;51.822;-0.326;2022-10-17T01:31:21;15.50;99.90
44565;DHT22;30275;51.822;-0.326;2022-10-17T01:34:00;15.60;99.90
44565;DHT22;30275;51.822;-0.326;2022-10-17T01:41:51;15.60;99.90
44565;DHT22;30275;51.822;-0.326;2022-10-17T01:47:09;15.60;99.90
44565;DHT22;30275;51.822;-0.326;2022-10-17T01:49:38;15.60;99.90
44565;DHT22;30275;51.822;-0.326;2022-10-17T01:52:31;15.60;99.90
44565;DHT22;30275;51.822;-0.326;2022-10-17T01:55:19;15.60;99.90
44565;DHT22;30275;51.822;-0.326;2022-10-17T01:57:55;15.60;99.90
44565;DHT22;30275;51.822;-0.326;2022-10-17T02:00:24;15.60;99.90
44565;DHT22;30275;51.822;-0.326;2022-10-17T02:02:55;15.60;99.90
44565;DHT22;30275;51.822;-0.326;2022-10-17T02:05:26;15.50;99.90
44565;DHT22;30275;51.822;-0.326;2022-10-17T02:07:53;15.50;99.90
44565;DHT22;30275;51.822;-0.326;2022-10-17T02:13:08;15.50;99.90
44565;DHT22;30275;51.822;-0.326;2022-10-17T02:21:11;15.40;99.90
44565;DHT22;30275;51.822;-0.326;2022-10-17T02:34:02;15.40;99.90
44565;DHT22;30275;51.822;-0.326;2022-10-17T02:36:38;15.40;99.90
44565;DHT22;30275;51.822;-0.326;2022-10-17T02:39:05;15.40;99.90
44565;DHT22;30275;51.822;-0.326;2022-10-17T02:41:32;15.30;99.90
44565;DHT22;30275;51.822;-0.326;2022-10-17T02:44:00;15.30;99.90
44565;DHT22;30275;51.822;-0.326;2022-10-17T02:46:27;15.30;99.90
44565;DHT22;30275;51.822;-0.326;2022-10-17T02:51:33;15.30;99.90
44565;DHT22;30275;51.822;-0.326;2022-10-17T02:59:25;15.30;99.90
44565;DHT22;30275;51.822;-0.326;2022-10-17T03:01:53;15.30;99.90
44565;DHT22;30275;51.822;-0.326;2022-10-17T03:04:19;15.30;99.90
44565;DHT22;30275;51.822;-0.326;2022-10-17T03:06:46;15.30;99.90
44565;DHT22;30275;51.822;-0.326;2022-10-17T03:09:12;15.20;99.90
44565;DHT22;30275;51.822;-0.326;2022-10-17T03:11:38;15.20;99.90
44565;DHT22;30275;51.822;-0.326;2022-10-17T03:14:03;15.20;99.90
44565;DHT22;30275;51.822;-0.326;2022-10-17T03:16:29;15.10;99.90
44565;DHT22;30275;51.822;-0.326;2022-10-17T03:18:54;15.10;99.90
44565;DHT22;30275;51.822;-0.326;2022-10-17T03:21:20;15.10;99.90
44565;DHT22;30275;51.822;-0.326;2022-10-17T03:23:46;15.10;99.90
44565;DHT22;30275;51.822;-0.326;2022-10-17T03:26:11;15.10;99.90
44565;DHT22;30275;51.822;-0.326;2022-10-17T03:28:37;15.10;99.90
44565;DHT22;30275;51.822;-0.326;2022-10-17T03:31:08;15.10;99.90
44565;DHT22;30275;51.822;-0.326;2022-10-17T03:33:34;15.10;99.90
44565;DHT22;30275;51.822;-0.326;2022-10-17T03:36:37;15.10;99.90
44565;DHT22;30275;51.822;-0.326;2022-10-17T03:39:03;15.10;99.90
44565;DHT22;30275;51.822;-0.326;2022-10-17T03:41:28;15.00;99.90
44565;DHT22;30275;51.822;-0.326;2022-10-17T03:43:54;15.00;99.90
44565;DHT22;30275;51.822;-0.326;2022-10-17T03:46:20;15.00;99.90
44565;DHT22;30275;51.822;-0.326;2022-10-17T03:48:45;15.00;99.90
44565;DHT22;30275;51.822;-0.326;2022-10-17T03:51:11;15.00;99.90
44565;DHT22;30275;51.822;-0.326;2022-10-17T03:53:36;14.90;99.90
44565;DHT22;30275;51.822;-0.326;2022-10-17T03:56:17;14.90;99.90
44565;DHT22;30275;51.822;-0.326;2022-10-17T03:58:43;14.90;99.90
44565;DHT22;30275;51.822;-0.326;2022-10-17T04:01:11;14.90;99.90
44565;DHT22;30275;51.822;-0.326;2022-10-17T04:03:37;14.90;99.90
44565;DHT22;30275;51.822;-0.326;2022-10-17T04:06:04;14.80;99.90
44565;DHT22;30275;51.822;-0.326;2022-10-17T04:08:30;14.80;99.90
44565;DHT22;30275;51.822;-0.326;2022-10-17T04:11:03;14.80;99.90
44565;DHT22;30275;51.822;-0.326;2022-10-17T04:13:30;14.80;99.90
44565;DHT22;30275;51.822;-0.326;2022-10-17T04:15:58;14.80;99.90
44565;DHT22;30275;51.822;-0.326;2022-10-17T04:18:24;14.80;99.90
44565;DHT22;30275;51.822;-0.326;2022-10-17T04:20:50;14.80;99.90
44565;DHT22;30275;51.822;-0.326;2022-10-17T04:23:15;14.80;99.90
44565;DHT22;30275;51.822;-0.326;2022-10-17T04:25:41;14.80;99.90
44565;DHT22;30275;51.822;-0.326;2022-10-17T04:28:07;14.70;99.90
44565;DHT22;30275;51.822;-0.326;2022-10-17T04:30:32;14.70;99.90
44565;DHT22;30275;51.822;-0.326;2022-10-17T04:32:58;14.70;99.90
44565;DHT22;30275;51.822;-0.326;2022-10-17T04:35:23;14.80;99.90
44565;DHT22;30275;51.822;-0.326;2022-10-17T04:37:49;14.80;99.90
44565;DHT22;30275;51.822;-0.326;2022-10-17T04:40:15;14.80;99.90
44565;DHT22;30275;51.822;-0.326;2022-10-17T04:42:40;14.80;99.90
44565;DHT22;30275;51.822;-0.326;2022-10-17T04:45:06;14.80;99.90
44565;DHT22;30275;51.822;-0.326;2022-10-17T04:47:32;14.80;99.90
44565;DHT22;30275;51.822;-0.326;2022-10-17T04:49:57;14.80;99.90
44565;DHT22;30275;51.822;-0.326;2022-10-17T04:52:23;14.80;99.90
44565;DHT22;30275;51.822;-0.326;2022-10-17T04:54:50;14.80;99.90
44565;DHT22;30275;51.822;-0.326;2022-10-17T04:57:16;14.80;99.90
44565;DHT22;30275;51.822;-0.326;2022-10-17T04:59:41;14.80;99.90
44565;DHT22;30275;51.822;-0.326;2022-10-17T05:02:07;14.80;99.90
44565;DHT22;30275;51.822;-0.326;2022-10-17T05:04:33;14.80;99.90
44565;DHT22;30275;51.822;-0.326;2022-10-17T05:06:58;14.80;99.90
44565;DHT22;30275;51.822;-0.326;2022-10-17T05:09:24;14.80;99.90
44565;DHT22;30275;51.822;-0.326;2022-10-17T05:11:50;14.80;99.90
44565;DHT22;30275;51.822;-0.326;2022-10-17T05:14:15;14.80;99.90
44565;DHT22;30275;51.822;-0.326;2022-10-17T05:16:41;14.80;99.90
44565;DHT22;30275;51.822;-0.326;2022-10-17T05:19:07;14.80;99.90
44565;DHT22;30275;51.822;-0.326;2022-10-17T05:21:32;14.80;99.90
44565;DHT22;30275;51.822;-0.326;2022-10-17T05:23:58;14.80;99.90
44565;DHT22;30275;51.822;-0.326;2022-10-17T05:26:24;14.80;99.90
44565;DHT22;30275;51.822;-0.326;2022-10-17T05:28:50;14.80;99.90
44565;DHT22;30275;51.822;-0.326;2022-10-17T05:31:17;14.70;99.90
44565;DHT22;30275;51.822;-0.326;2022-10-17T05:33:43;14.70;99.90
44565;DHT22;30275;51.822;-0.326;2022-10-17T05:36:09;14.70;99.90
44565;DHT22;30275;51.822;-0.326;2022-10-17T05:38:35;14.70;99.90
44565;DHT22;30275;51.822;-0.326;2022-10-17T05:41:02;14.70;99.90
44565;DHT22;30275;51.822;-0.326;2022-10-17T05:43:29;14.70;99.90
44565;DHT22;30275;51.822;-0.326;2022-10-17T05:45:55;14.70;99.90
44565;DHT22;30275;51.822;-0.326;2022-10-17T05:48:21;14.70;99.90
44565;DHT22;30275;51.822;-0.326;2022-10-17T05:50:47;14.70;99.90
44565;DHT22;30275;51.822;-0.326;2022-10-17T05:53:13;14.70;99.90
44565;DHT22;30275;51.822;-0.326;2022-10-17T05:55:39;14.70;99.90
44565;DHT22;30275;51.822;-0.326;2022-10-17T05:58:05;14.60;99.90
44565;DHT22;30275;51.822;-0.326;2022-10-17T06:00:31;14.70;99.90
44565;DHT22;30275;51.822;-0.326;2022-10-17T06:02:56;14.70;99.90
44565;DHT22;30275;51.822;-0.326;2022-10-17T06:05:22;14.60;99.90
44565;DHT22;30275;51.822;-0.326;2022-10-17T06:07:48;14.60;99.90
44565;DHT22;30275;51.822;-0.326;2022-10-17T06:10:14;14.60;99.90
44565;DHT22;30275;51.822;-0.326;2022-10-17T06:12:42;14.60;99.90
44565;DHT22;30275;51.822;-0.326;2022-10-17T06:15:08;14.50;99.90
44565;DHT22;30275;51.822;-0.326;2022-10-17T06:17:34;14.60;99.90
44565;DHT22;30275;51.822;-0.326;2022-10-17T06:20:00;14.50;99.90
44565;DHT22;30275;51.822;-0.326;2022-10-17T06:22:25;14.50;99.90
44565;DHT22;30275;51.822;-0.326;2022-10-17T06:24:51;14.50;99.90
44565;DHT22;30275;51.822;-0.326;2022-10-17T06:27:18;14.50;99.90
44565;DHT22;30275;51.822;-0.326;2022-10-17T06:29:45;14.50;99.90
44565;DHT22;30275;51.822;-0.326;2022-10-17T06:32:10;14.50;99.90
44565;DHT22;30275;51.822;-0.326;2022-10-17T06:34:36;14.50;99.90
44565;DHT22;30275;51.822;-0.326;2022-10-17T06:37:02;14.50;99.90
44565;DHT22;30275;51.822;-0.326;2022-10-17T06:39:27;14.50;99.90
44565;DHT22;30275;51.822;-0.326;2022-10-17T06:41:59;14.50;99.90
44565;DHT22;30275;51.822;-0.326;2022-10-17T06:44:24;14.50;99.90
44565;DHT22;30275;51.822;-0.326;2022-10-17T06:46:55;14.50;99.90
44565;DHT22;30275;51.822;-0.326;2022-10-17T06:49:21;14.50;99.90
44565;DHT22;30275;51.822;-0.326;2022-10-17T06:51:47;14.50;99.90
44565;DHT22;30275;51.822;-0.326;2022-10-17T06:54:12;14.50;99.90
44565;DHT22;30275;51.822;-0.326;2022-10-17T06:56:38;14.50;99.90
44565;DHT22;30275;51.822;-0.326;2022-10-17T06:59:03;14.50;99.90
44565;DHT22;30275;51.822;-0.326;2022-10-17T07:01:30;14.50;99.90
44565;DHT22;30275;51.822;-0.326;2022-10-17T07:03:56;14.50;99.90
44565;DHT22;30275;51.822;-0.326;2022-10-17T07:06:21;14.50;99.90
44565;DHT22;30275;51.822;-0.326;2022-10-17T07:08:49;14.50;99.90
44565;DHT22;30275;51.822;-0.326;2022-10-17T07:11:20;14.50;99.90
44565;DHT22;30275;51.822;-0.326;2022-10-17T07:13:47;14.50;99.90
44565;DHT22;30275;51.822;-0.326;2022-10-17T07:16:14;14.50;99.90
44565;DHT22;30275;51.822;-0.326;2022-10-17T07:18:40;14.50;99.90
44565;DHT22;30275;51.822;-0.326;2022-10-17T07:21:07;14.50;99.90
44565;DHT22;30275;51.822;-0.326;2022-10-17T07:23:33;14.50;99.90
44565;DHT22;30275;51.822;-0.326;2022-10-17T07:26:03;14.50;99.90
44565;DHT22;30275;51.822;-0.326;2022-10-17T07:28:33;14.50;99.90
44565;DHT22;30275;51.822;-0.326;2022-10-17T07:31:07;14.50;99.90
44565;DHT22;30275;51.822;-0.326;2022-10-17T07:33:33;14.50;99.90
44565;DHT22;30275;51.822;-0.326;2022-10-17T07:35:59;14.50;99.90
44565;DHT22;30275;51.822;-0.326;2022-10-17T07:38:26;14.60;99.90
44565;DHT22;30275;51.822;-0.326;2022-10-17T07:40:55;14.60;99.90
44565;DHT22;30275;51.822;-0.326;2022-10-17T07:43:22;14.60;99.90
44565;DHT22;30275;51.822;-0.326;2022-10-17T07:45:48;14.60;99.90
44565;DHT22;30275;51.822;-0.326;2022-10-17T07:48:13;14.70;99.90
44565;DHT22;30275;51.822;-0.326;2022-10-17T07:50:39;14.80;99.90
44565;DHT22;30275;51.822;-0.326;2022-10-17T07:53:04;14.80;99.90
44565;DHT22;30275;51.822;-0.326;2022-10-17T07:55:30;14.90;99.90
44565;DHT22;30275;51.822;-0.326;2022-10-17T07:57:57;15.10;99.90
44565;DHT22;30275;51.822;-0.326;2022-10-17T08:00:25;15.10;99.90
44565;DHT22;30275;51.822;-0.326;2022-10-17T08:02:50;15.10;99.90
44565;DHT22;30275;51.822;-0.326;2022-10-17T08:05:16;15.30;99.90
44565;DHT22;30275;51.822;-0.326;2022-10-17T08:07:41;15.30;99.90
44565;DHT22;30275;51.822;-0.326;2022-10-17T08:10:07;15.40;99.90
44565;DHT22;30275;51.822;-0.326;2022-10-17T08:12:34;15.70;99.90
44565;DHT22;30275;51.822;-0.326;2022-10-17T08:15:00;15.80;99.90
44565;DHT22;30275;51.822;-0.326;2022-10-17T08:17:26;15.90;99.90
44565;DHT22;30275;51.822;-0.326;2022-10-17T08:19:51;15.90;99.90
44565;DHT22;30275;51.822;-0.326;2022-10-17T08:22:17;15.80;99.90
44565;DHT22;30275;51.822;-0.326;2022-10-17T08:24:43;15.80;99.90
44565;DHT22;30275;51.822;-0.326;2022-10-17T08:27:09;16.00;99.90
44565;DHT22;30275;51.822;-0.326;2022-10-17T08:29:38;16.10;99.90
44565;DHT22;30275;51.822;-0.326;2022-10-17T08:32:05;15.90;99.90
44565;DHT22;30275;51.822;-0.326;2022-10-17T08:34:31;16.10;99.90
44565;DHT22;30275;51.822;-0.326;2022-10-17T08:36:57;16.00;99.90
44565;DHT22;30275;51.822;-0.326;2022-10-17T08:39:23;15.90;99.90
44565;DHT22;30275;51.822;-0.326;2022-10-17T08:44:45;15.90;99.90
44565;DHT22;30275;51.822;-0.326;2022-10-17T08:47:20;15.90;99.90
44565;DHT22;30275;51.822;-0.326;2022-10-17T08:49:51;15.80;99.90
44565;DHT22;30275;51.822;-0.326;2022-10-17T08:52:39;15.60;99.90
44565;DHT22;30275;51.822;-0.326;2022-10-17T08:55:04;15.60;99.90
44565;DHT22;30275;51.822;-0.326;2022-10-17T08:57:37;15.60;99.90
44565;DHT22;30275;51.822;-0.326;2022-10-17T09:00:16;15.90;99.90
44565;DHT22;30275;51.822;-0.326;2022-10-17T09:05:47;16.10;99.90
44565;DHT22;30275;51.822;-0.326;2022-10-17T09:11:51;16.20;99.90
44565;DHT22;30275;51.822;-0.326;2022-10-17T09:19:24;17.30;99.90
44565;DHT22;30275;51.822;-0.326;2022-10-17T09:21:52;17.80;99.90
44565;DHT22;30275;51.822;-0.326;2022-10-17T09:28:00;18.40;99.90
44565;DHT22;30275;51.822;-0.326;2022-10-17T09:32:56;20.40;99.90
44565;DHT22;30275;51.822;-0.326;2022-10-17T09:35:22;19.60;99.90
44565;DHT22;30275;51.822;-0.326;2022-10-17T09:37:48;19.00;99.90
44565;DHT22;30275;51.822;-0.326;2022-10-17T09:40:31;19.80;99.90
44565;DHT22;30275;51.822;-0.326;2022-10-17T09:43:00;20.80;99.90
44565;DHT22;30275;51.822;-0.326;2022-10-17T09:45:26;21.30;99.90
44565;DHT22;30275;51.822;-0.326;2022-10-17T09:48:09;21.60;99.90
44565;DHT22;30275;51.822;-0.326;2022-10-17T09:50:39;21.00;99.90
44565;DHT22;30275;51.822;-0.326;2022-10-17T09:53:17;21.30;99.90
44565;DHT22;30275;51.822;-0.326;2022-10-17T09:55:47;22.50;99.90
44565;DHT22;30275;51.822;-0.326;2022-10-17T09:58:14;22.70;99.90
44565;DHT22;30275;51.822;-0.326;2022-10-17T10:00:42;23.00;99.60
44565;DHT22;30275;51.822;-0.326;2022-10-17T10:05:59;22.10;99.90
44565;DHT22;30275;51.822;-0.326;2022-10-17T10:08:47;23.10;99.60
44565;DHT22;30275;51.822;-0.326;2022-10-17T10:11:16;20.90;99.90
44565;DHT22;30275;51.822;-0.326;2022-10-17T10:13:43;20.80;99.90
44565;DHT22;30275;51.822;-0.326;2022-10-17T10:18:41;21.50;99.90
44565;DHT22;30275;51.822;-0.326;2022-10-17T10:21:14;21.80;98.90
44565;DHT22;30275;51.822;-0.326;2022-10-17T10:23:45;20.90;99.90
44565;DHT22;30275;51.822;-0.326;2022-10-17T10:26:32;21.20;99.90
44565;DHT22;30275;51.822;-0.326;2022-10-17T10:29:02;20.30;99.90
44565;DHT22;30275;51.822;-0.326;2022-10-17T10:31:38;20.20;99.90
44565;DHT22;30275;51.822;-0.326;2022-10-17T10:34:27;19.40;99.90
44565;DHT22;30275;51.822;-0.326;2022-10-17T10:37:00;19.80;99.90
44565;DHT22;30275;51.822;-0.326;2022-10-17T10:42:17;21.10;99.70
44565;DHT22;30275;51.822;-0.326;2022-10-17T10:44:43;21.60;98.40
44565;DHT22;30275;51.822;-0.326;2022-10-17T10:47:22;20.70;97.10
44565;DHT22;30275;51.822;-0.326;2022-10-17T10:50:06;20.60;97.60
44565;DHT22;30275;51.822;-0.326;2022-10-17T10:55:31;20.90;97.50
44565;DHT22;30275;51.822;-0.326;2022-10-17T10:58:03;20.60;96.80
44565;DHT22;30275;51.822;-0.326;2022-10-17T11:00:31;20.20;98.30
44565;DHT22;30275;51.822;-0.326;2022-10-17T11:03:14;20.60;98.20
44565;DHT22;30275;51.822;-0.326;2022-10-17T11:10:54;21.70;96.20
44565;DHT22;30275;51.822;-0.326;2022-10-17T11:13:26;21.00;96.20
44565;DHT22;30275;51.822;-0.326;2022-10-17T11:16:18;20.90;97.00
44565;DHT22;30275;51.822;-0.326;2022-10-17T11:22:08;20.90;96.30
44565;DHT22;30275;51.822;-0.326;2022-10-17T11:24:51;21.20;96.80
44565;DHT22;30275;51.822;-0.326;2022-10-17T11:27:22;21.10;96.20
44565;DHT22;30275;51.822;-0.326;2022-10-17T11:29:48;21.20;95.50
44565;DHT22;30275;51.822;-0.326;2022-10-17T11:32:23;21.10;94.60
44565;DHT22;30275;51.822;-0.326;2022-10-17T11:34:56;20.30;97.20
44565;DHT22;30275;51.822;-0.326;2022-10-17T11:37:30;20.10;97.60
44565;DHT22;30275;51.822;-0.326;2022-10-17T11:40:08;19.90;96.70
44565;DHT22;30275;51.822;-0.326;2022-10-17T11:42:57;20.20;97.30
44565;DHT22;30275;51.822;-0.326;2022-10-17T11:45:26;20.70;97.30
44565;DHT22;30275;51.822;-0.326;2022-10-17T11:48:00;22.00;95.10
44565;DHT22;30275;51.822;-0.326;2022-10-17T11:50:31;22.40;93.00
44565;DHT22;30275;51.822;-0.326;2022-10-17T11:53:13;22.80;92.10
44565;DHT22;30275;51.822;-0.326;2022-10-17T11:55:39;22.90;88.50
44565;DHT22;30275;51.822;-0.326;2022-10-17T12:00:51;22.70;89.10
44565;DHT22;30275;51.822;-0.326;2022-10-17T12:08:53;21.50;90.80
44565;DHT22;30275;51.822;-0.326;2022-10-17T12:11:55;20.80;91.10
44565;DHT22;30275;51.822;-0.326;2022-10-17T12:14:44;20.40;91.90
44565;DHT22;30275;51.822;-0.326;2022-10-17T12:19:51;21.40;91.90
44565;DHT22;30275;51.822;-0.326;2022-10-17T12:22:18;21.60;90.10
44565;DHT22;30275;51.822;-0.326;2022-10-17T12:25:02;22.20;90.10
44565;DHT22;30275;51.822;-0.326;2022-10-17T12:27:38;22.10;89.70
44565;DHT22;30275;51.822;-0.326;2022-10-17T12:30:24;21.50;90.10
44565;DHT22;30275;51.822;-0.326;2022-10-17T12:33:04;20.20;91.90
44565;DHT22;30275;51.822;-0.326;2022-10-17T12:35:32;19.40;92.80
44565;DHT22;30275;51.822;-0.326;2022-10-17T12:43:00;19.60;94.20
44565;DHT22;30275;51.822;-0.326;2022-10-17T12:45:45;20.10;93.50
44565;DHT22;30275;51.822;-0.326;2022-10-17T12:54:07;20.00;94.00
44565;DHT22;30275;51.822;-0.326;2022-10-17T12:56:37;19.60;93.30
44565;DHT22;30275;51.822;-0.326;2022-10-17T12:59:17;19.20;94.60
44565;DHT22;30275;51.822;-0.326;2022-10-17T13:01:49;19.10;94.00
44565;DHT22;30275;51.822;-0.326;2022-10-17T13:04:16;18.90;94.80
44565;DHT22;30275;51.822;-0.326;2022-10-17T13:06:46;19.20;95.40
44565;DHT22;30275;51.822;-0.326;2022-10-17T13:09:31;19.30;94.80
44565;DHT22;30275;51.822;-0.326;2022-10-17T13:12:03;19.30;94.40
44565;DHT22;30275;51.822;-0.326;2022-10-17T13:14:31;19.20;94.80
44565;DHT22;30275;51.822;-0.326;2022-10-17T13:17:00;19.30;95.10
44565;DHT22;30275;51.822;-0.326;2022-10-17T13:19:30;19.30;93.80
44565;DHT22;30275;51.822;-0.326;2022-10-17T13:22:01;19.20;94.10
44565;DHT22;30275;51.822;-0.326;2022-10-17T13:24:35;19.30;93.40
44565;DHT22;30275;51.822;-0.326;2022-10-17T13:27:02;19.30;94.20
44565;DHT22;30275;51.822;-0.326;2022-10-17T13:29:28;19.20;93.80
44565;DHT22;30275;51.822;-0.326;2022-10-17T13:32:04;19.20;93.60
44565;DHT22;30275;51.822;-0.326;2022-10-17T13:34:31;19.00;94.50
44565;DHT22;30275;51.822;-0.326;2022-10-17T13:37:00;19.00;94.70
44565;DHT22;30275;51.822;-0.326;2022-10-17T13:39:37;19.00;94.70
44565;DHT22;30275;51.822;-0.326;2022-10-17T13:42:03;19.00;93.90
44565;DHT22;30275;51.822;-0.326;2022-10-17T13:44:32;19.00;93.80
44565;DHT22;30275;51.822;-0.326;2022-10-17T13:46:58;18.90;94.00
44565;DHT22;30275;51.822;-0.326;2022-10-17T13:51:51;18.90;93.60
44565;DHT22;30275;51.822;-0.326;2022-10-17T13:54:34;18.90;93.30
44565;DHT22;30275;51.822;-0.326;2022-10-17T13:57:00;18.70;93.80
44565;DHT22;30275;51.822;-0.326;2022-10-17T13:59:37;18.70;93.50
44565;DHT22;30275;51.822;-0.326;2022-10-17T14:02:05;18.60;94.10
44565;DHT22;30275;51.822;-0.326;2022-10-17T14:04:37;18.80;92.90
44565;DHT22;30275;51.822;-0.326;2022-10-17T14:07:04;18.90;93.90
44565;DHT22;30275;51.822;-0.326;2022-10-17T14:09:31;18.90;93.00
44565;DHT22;30275;51.822;-0.326;2022-10-17T14:12:08;18.90;92.60
44565;DHT22;30275;51.822;-0.326;2022-10-17T14:14:37;18.90;92.10
44565;DHT22;30275;51.822;-0.326;2022-10-17T14:17:25;18.90;91.80
44565;DHT22;30275;51.822;-0.326;2022-10-17T14:19:57;18.70;91.50
44565;DHT22;30275;51.822;-0.326;2022-10-17T14:22:27;18.80;90.10
44565;DHT22;30275;51.822;-0.326;2022-10-17T14:24:53;18.70;91.80
44565;DHT22;30275;51.822;-0.326;2022-10-17T14:29:52;18.70;91.20
44565;DHT22;30275;51.822;-0.326;2022-10-17T14:32:19;18.60;91.10
44565;DHT22;30275;51.822;-0.326;2022-10-17T14:34:46;18.70;91.60
44565;DHT22;30275;51.822;-0.326;2022-10-17T14:37:38;18.70;91.80
44565;DHT22;30275;51.822;-0.326;2022-10-17T14:40:06;18.70;92.60
44565;DHT22;30275;51.822;-0.326;2022-10-17T14:42:37;18.80;92.50
44565;DHT22;30275;51.822;-0.326;2022-10-17T14:45:11;18.60;92.40
44565;DHT22;30275;51.822;-0.326;2022-10-17T14:47:38;18.60;92.30
44565;DHT22;30275;51.822;-0.326;2022-10-17T14:50:19;18.70;92.30
44565;DHT22;30275;51.822;-0.326;2022-10-17T14:53:16;18.80;92.00
44565;DHT22;30275;51.822;-0.326;2022-10-17T14:56:03;18.90;91.60
44565;DHT22;30275;51.822;-0.326;2022-10-17T14:58:32;18.90;92.10
44565;DHT22;30275;51.822;-0.326;2022-10-17T15:00:59;18.70;92.70
44565;DHT22;30275;51.822;-0.326;2022-10-17T15:03:25;18.70;92.70
44565;DHT22;30275;51.822;-0.326;2022-10-17T15:05:52;18.70;93.40
44565;DHT22;30275;51.822;-0.326;2022-10-17T15:08:20;18.60;93.70
44565;DHT22;30275;51.822;-0.326;2022-10-17T15:10:47;18.50;93.60
44565;DHT22;30275;51.822;-0.326;2022-10-17T15:13:13;18.40;94.00
44565;DHT22;30275;51.822;-0.326;2022-10-17T15:15:40;18.40;94.30
44565;DHT22;30275;51.822;-0.326;2022-10-17T15:18:09;18.50;94.90
44565;DHT22;30275;51.822;-0.326;2022-10-17T15:20:36;18.50;94.10
44565;DHT22;30275;51.822;-0.326;2022-10-17T15:23:02;18.60;94.10
44565;DHT22;30275;51.822;-0.326;2022-10-17T15:25:28;18.50;93.90
44565;DHT22;30275;51.822;-0.326;2022-10-17T15:27:55;18.40;94.50
44565;DHT22;30275;51.822;-0.326;2022-10-17T15:30:27;18.40;94.90
44565;DHT22;30275;51.822;-0.326;2022-10-17T15:32:53;18.50;95.10
44565;DHT22;30275;51.822;-0.326;2022-10-17T15:35:19;18.60;94.50
44565;DHT22;30275;51.822;-0.326;2022-10-17T15:37:45;18.50;94.90
44565;DHT22;30275;51.822;-0.326;2022-10-17T15:40:15;18.40;95.30
44565;DHT22;30275;51.822;-0.326;2022-10-17T15:42:41;18.30;95.00
44565;DHT22;30275;51.822;-0.326;2022-10-17T15:45:10;18.10;95.50
44565;DHT22;30275;51.822;-0.326;2022-10-17T15:47:36;18.10;96.60
44565;DHT22;30275;51.822;-0.326;2022-10-17T15:50:03;18.10;96.70
44565;DHT22;30275;51.822;-0.326;2022-10-17T15:52:29;18.00;95.80
44565;DHT22;30275;51.822;-0.326;2022-10-17T15:54:54;17.90;96.30
44565;DHT22;30275;51.822;-0.326;2022-10-17T15:57:27;17.60;96.40
44565;DHT22;30275;51.822;-0.326;2022-10-17T15:59:58;17.50;96.90
44565;DHT22;30275;51.822;-0.326;2022-10-17T16:02:23;17.40;96.90
44565;DHT22;30275;51.822;-0.326;2022-10-17T16:04:50;17.40;97.50
44565;DHT22;30275;51.822;-0.326;2022-10-17T16:07:17;17.40;97.60
44565;DHT22;30275;51.822;-0.326;2022-10-17T16:09:43;17.40;97.90
44565;DHT22;30275;51.822;-0.326;2022-10-17T16:12:17;17.30;97.70
44565;DHT22;30275;51.822;-0.326;2022-10-17T16:14:44;17.10;97.40
44565;DHT22;30275;51.822;-0.326;2022-10-17T16:17:18;17.10;98.90
44565;DHT22;30275;51.822;-0.326;2022-10-17T16:19:44;17.10;98.50
44565;DHT22;30275;51.822;-0.326;2022-10-17T16:22:29;17.00;98.70
44565;DHT22;30275;51.822;-0.326;2022-10-17T16:25:01;17.00;98.80
44565;DHT22;30275;51.822;-0.326;2022-10-17T16:27:34;16.80;99.00
44565;DHT22;30275;51.822;-0.326;2022-10-17T16:30:00;16.80;99.40
44565;DHT22;30275;51.822;-0.326;2022-10-17T16:32:26;16.70;99.70
44565;DHT22;30275;51.822;-0.326;2022-10-17T16:34:52;16.70;99.90
44565;DHT22;30275;51.822;-0.326;2022-10-17T16:37:17;16.80;99.90
44565;DHT22;30275;51.822;-0.326;2022-10-17T16:39:43;16.70;99.90
44565;DHT22;30275;51.822;-0.326;2022-10-17T16:42:13;16.60;99.90
44565;DHT22;30275;51.822;-0.326;2022-10-17T16:44:39;16.40;99.90
44565;DHT22;30275;51.822;-0.326;2022-10-17T16:47:05;16.10;99.90
44565;DHT22;30275;51.822;-0.326;2022-10-17T16:49:30;15.90;99.90
44565;DHT22;30275;51.822;-0.326;2022-10-17T16:51:56;15.80;99.90
44565;DHT22;30275;51.822;-0.326;2022-10-17T16:54:22;15.50;99.90
44565;DHT22;30275;51.822;-0.326;2022-10-17T16:56:47;15.40;99.90
44565;DHT22;30275;51.822;-0.326;2022-10-17T16:59:14;15.10;99.90
44565;DHT22;30275;51.822;-0.326;2022-10-17T17:01:39;15.00;99.90
44565;DHT22;30275;51.822;-0.326;2022-10-17T17:04:06;14.70;99.90
44565;DHT22;30275;51.822;-0.326;2022-10-17T17:06:33;14.50;99.90
44565;DHT22;30275;51.822;-0.326;2022-10-17T17:08:59;14.40;99.90
44565;DHT22;30275;51.822;-0.326;2022-10-17T17:11:27;14.10;99.90
44565;DHT22;30275;51.822;-0.326;2022-10-17T17:13:56;13.90;99.90
44565;DHT22;30275;51.822;-0.326;2022-10-17T17:16:26;13.90;99.90
44565;DHT22;30275;51.822;-0.326;2022-10-17T17:19:03;13.60;99.90
44565;DHT22;30275;51.822;-0.326;2022-10-17T17:21:30;13.40;99.90
44565;DHT22;30275;51.822;-0.326;2022-10-17T17:23:58;13.30;99.90
44565;DHT22;30275;51.822;-0.326;2022-10-17T17:26:25;13.20;99.90
44565;DHT22;30275;51.822;-0.326;2022-10-17T17:28:51;13.20;99.90